Main page
METAR-TAF:

METAR-TAF

Airports :

Lille, France

Lille Airport

latitude: 50-34N, longitude: 003-06E, elevation: 48 m

Current weather observation

The report was made 16 minutes ago, at 07:00 UTC
Wind 10 kt from the East
Temperature 20°C
Humidity 56%
Pressure 1021 hPa
Visibility 10 km or more
no clouds below 1500 m and no cumulonimbus

METAR: LFQQ 260700Z AUTO 10010KT CAVOK 20/11 Q1021 NOSIG

Time: 09:16 (07:16 UTC)

Forecast

The report was made 2 hours and 16 minutes ago, at 05:00 UTC
Forecast valid from 26 at 06 UTC to 27 at 12 UTC
Wind 8 kt from the East
Visibility 10 km or more
no clouds below 1500 m and no cumulonimbus
Becoming
from 27 at 06 UTC to 27 at 10 UTC
Wind 10 kt from the South/Southeast

TAF: LFQQ 260500Z 2606/2712 08008KT CAVOK BECMG 2706/2710 16010KT

Weather observations and forecasts of more than 4000 airports (METAR and TAF reports).

The available stations are represented by yellow and red dots on the map.

Hover mouse over dot to see the name of the station.

Then click to see weather observations and forecasts.

To change the map : click on the green buttons with a black cross to zoom in, on the green button with a dash to zoom out, or on the green arrows for adjacent maps.


METAR-TAF: